Terminal Aerodrome Forecast
Issued by NWS

Home | Current Version | Previous Version | Text Only | Print | Product List | Glossary On
Versions: 1 2 3 4 5 6 7 8 9 10 11 12 13 14 15 16 17
000
FTUS41 KBOX 242326
TAFBAF
TAF
KBAF 242326Z 2500/2524 33010KT P6SM BKN035
     FM250400 33004KT P6SM SCT060
     FM251900 27007KT P6SM SCT200
     FM252300 23005KT P6SM BKN090=

USA.gov is the U.S. government's official web portal to all federal, state and local government web resources and services.